createdAt,value
2022-09-15T00:01:12.414Z,98751.05
2022-09-15T00:03:40.802Z,98744.29
2022-09-15T00:06:09.054Z,98737.66
2022-09-15T00:08:36.917Z,98737.27
2022-09-15T00:11:06.631Z,98728.36
2022-09-15T00:13:35.519Z,98712.91
2022-09-15T00:16:03.854Z,98705.05
2022-09-15T00:18:31.909Z,98712.10
2022-09-15T00:20:59.339Z,98708.37
2022-09-15T00:23:26.808Z,98702.99
2022-09-15T00:25:54.253Z,98698.91
2022-09-15T00:28:22.829Z,98700.91
2022-09-15T00:30:54.646Z,98699.48
2022-09-15T00:33:23.005Z,98698.52
2022-09-15T00:35:52.165Z,98699.59
2022-09-15T00:38:20.553Z,98701.08
2022-09-15T00:40:53.849Z,98707.41
2022-09-15T00:43:42.919Z,98709.98
2022-09-15T00:46:10.839Z,98709.45
2022-09-15T00:48:42.959Z,98713.02
2022-09-15T00:51:13.320Z,98717.89
2022-09-15T00:53:40.893Z,98720.59
2022-09-15T00:56:09.912Z,98724.89
2022-09-15T00:58:55.575Z,98724.93
2022-09-15T01:01:24.567Z,98727.27
2022-09-15T01:03:51.840Z,98728.59
2022-09-15T01:06:28.824Z,98731.91
2022-09-15T01:09:11.362Z,98724.02
2022-09-15T01:11:39.319Z,98718.44
2022-09-15T01:14:06.779Z,98712.88
2022-09-15T01:17:07.820Z,98710.76
2022-09-15T01:20:01.272Z,98711.84
2022-09-15T01:22:34.257Z,98713.38
2022-09-15T01:25:14.816Z,98711.92
2022-09-15T01:27:53.970Z,98702.09
2022-09-15T01:30:22.614Z,98694.77
2022-09-15T01:33:05.633Z,98695.77
2022-09-15T01:36:00.573Z,98699.17
2022-09-15T01:38:45.540Z,98702.46
2022-09-15T01:41:25.903Z,98705.55
2022-09-15T01:44:11.099Z,98696.36
2022-09-15T01:46:47.423Z,98696.46
2022-09-15T01:49:21.032Z,98697.12
2022-09-15T01:51:51.980Z,98700.16
2022-09-15T01:54:40.025Z,98699.08
2022-09-15T01:57:07.480Z,98696.27
2022-09-15T01:59:35.134Z,98695.61
2022-09-15T02:02:06.393Z,98696.77
2022-09-15T02:04:41.626Z,98699.31
2022-09-15T02:07:16.753Z,98699.59
2022-09-15T02:09:49.965Z,98701.77
2022-09-15T02:12:37.780Z,98703.86
2022-09-15T02:15:11.960Z,98708.36
2022-09-15T02:17:44.145Z,98711.63
2022-09-15T02:20:18.575Z,98719.92
2022-09-15T02:22:50.082Z,98723.41
2022-09-15T02:25:20.039Z,98728.92
2022-09-15T02:27:50.766Z,98730.01
2022-09-15T02:30:20.168Z,98732.49
2022-09-15T02:33:00.130Z,98734.25
2022-09-15T02:35:29.170Z,98732.58
2022-09-15T02:37:56.700Z,98735.48
2022-09-15T02:40:24.496Z,98735.83
2022-09-15T02:42:54.269Z,98731.80
2022-09-15T02:45:21.881Z,98725.19
2022-09-15T02:47:50.527Z,98723.19
2022-09-15T02:50:19.410Z,98726.95
2022-09-15T02:52:47.180Z,98733.19
2022-09-15T02:55:14.404Z,98734.88
2022-09-15T02:57:41.682Z,98728.64
2022-09-15T03:00:16.402Z,98726.01
2022-09-15T03:02:46.650Z,98724.19
2022-09-15T03:05:15.259Z,98726.93
2022-09-15T03:07:42.654Z,98723.76
2022-09-15T03:10:12.408Z,98726.63
2022-09-15T03:12:57.868Z,98728.27
2022-09-15T03:15:26.633Z,98738.59
2022-09-15T03:17:54.491Z,98747.13
2022-09-15T03:20:24.117Z,98746.59
2022-09-15T03:22:51.345Z,98747.15
2022-09-15T03:25:18.904Z,98749.13
2022-09-15T03:27:46.380Z,98756.14
2022-09-15T03:30:14.836Z,98760.79
2022-09-15T03:32:42.309Z,98762.73
2022-09-15T03:35:10.299Z,98777.52
2022-09-15T03:37:37.743Z,98783.15
2022-09-15T03:40:05.967Z,98792.30
2022-09-15T03:42:33.382Z,98797.00
2022-09-15T03:45:01.759Z,98803.27
2022-09-15T03:47:29.420Z,98806.73
2022-09-15T03:49:56.880Z,98814.45
2022-09-15T03:52:24.220Z,98823.66
2022-09-15T03:54:51.471Z,98831.13
2022-09-15T03:57:18.733Z,98828.49
2022-09-15T03:59:45.973Z,98817.27
2022-09-15T04:02:14.594Z,98818.39
2022-09-15T04:04:41.941Z,98817.41
2022-09-15T04:07:09.673Z,98815.12
2022-09-15T04:09:37.662Z,98814.30
2022-09-15T04:12:05.520Z,98828.09
2022-09-15T04:14:32.754Z,98831.37
2022-09-15T04:16:59.904Z,98829.89
2022-09-15T04:19:27.170Z,98835.31
2022-09-15T04:21:54.530Z,98836.20
2022-09-15T04:24:21.773Z,98837.15
2022-09-15T04:26:49.425Z,98837.34
2022-09-15T04:29:18.030Z,98845.11
2022-09-15T04:31:47.119Z,98837.48
2022-09-15T04:34:14.670Z,98838.89
2022-09-15T04:36:42.231Z,98841.39
2022-09-15T04:39:09.790Z,98848.86
2022-09-15T04:41:36.945Z,98847.23
2022-09-15T04:44:04.649Z,98847.64
2022-09-15T04:46:32.029Z,98855.27
2022-09-15T04:48:59.618Z,98861.09
2022-09-15T04:51:27.696Z,98862.61
2022-09-15T04:53:56.007Z,98866.42
2022-09-15T04:56:26.083Z,98866.47
2022-09-15T04:58:59.503Z,98870.13
2022-09-15T05:01:31.983Z,98880.61
2022-09-15T05:03:59.461Z,98878.65
2022-09-15T05:06:27.988Z,98876.02
2022-09-15T05:08:57.861Z,98882.23
2022-09-15T05:11:25.887Z,98883.93
2022-09-15T05:13:53.775Z,98890.98
2022-09-15T05:16:23.954Z,98888.75
2022-09-15T05:18:52.145Z,98887.05
2022-09-15T05:21:21.276Z,98885.11
2022-09-15T05:23:49.348Z,98883.77
2022-09-15T05:26:22.490Z,98882.52
2022-09-15T05:28:50.077Z,98892.58
2022-09-15T05:31:28.977Z,98897.25
2022-09-15T05:33:56.550Z,98902.08
2022-09-15T05:36:28.504Z,98907.23
2022-09-15T05:38:59.436Z,98905.56
2022-09-15T05:41:28.898Z,98905.98
2022-09-15T05:43:57.751Z,98900.13
2022-09-15T05:46:28.617Z,98891.02
2022-09-15T05:48:57.263Z,98891.05
2022-09-15T05:51:24.830Z,98890.34
2022-09-15T05:53:52.470Z,98887.20
2022-09-15T05:56:21.456Z,98891.16
2022-09-15T05:58:49.535Z,98892.52
2022-09-15T06:01:25.536Z,98895.04
2022-09-15T06:03:53.901Z,98899.48
2022-09-15T06:06:22.483Z,98897.48
2022-09-15T06:08:57.725Z,98902.52
2022-09-15T06:11:31.133Z,98905.70
2022-09-15T06:14:03.526Z,98906.07
2022-09-15T06:16:35.389Z,98902.42
2022-09-15T06:19:02.778Z,98902.44
2022-09-15T06:21:32.050Z,98910.15
2022-09-15T06:24:01.453Z,98909.52
2022-09-15T06:26:29.052Z,98911.19
2022-09-15T06:29:01.139Z,98915.33
2022-09-15T06:31:31.780Z,98918.63
2022-09-15T06:34:10.270Z,98916.41
2022-09-15T06:36:39.046Z,98916.92
2022-09-15T06:39:06.619Z,98917.53
2022-09-15T06:41:52.928Z,98917.01
2022-09-15T06:44:21.501Z,98915.73
2022-09-15T06:46:49.770Z,98919.88
2022-09-15T06:49:17.541Z,98922.23
2022-09-15T06:51:45.811Z,98931.27
2022-09-15T06:54:13.044Z,98931.83
2022-09-15T06:56:40.631Z,98934.02
2022-09-15T06:59:08.071Z,98937.85
2022-09-15T07:01:35.531Z,98934.55
2022-09-15T07:04:06.065Z,98932.61
2022-09-15T07:06:34.472Z,98937.63
2022-09-15T07:09:03.109Z,98941.52
2022-09-15T07:11:31.092Z,98941.05
2022-09-15T07:13:58.661Z,98942.00
2022-09-15T07:16:26.407Z,98946.89
2022-09-15T07:18:57.166Z,98951.23
2022-09-15T07:21:25.125Z,98954.21
2022-09-15T07:23:52.746Z,98960.13
2022-09-15T07:26:22.970Z,98964.30
2022-09-15T07:28:56.576Z,98968.94
2022-09-15T07:31:26.031Z,98973.30
2022-09-15T07:33:53.959Z,98976.47
2022-09-15T07:36:21.784Z,98977.23
2022-09-15T07:38:50.007Z,98975.41
2022-09-15T07:41:22.883Z,98980.80
2022-09-15T07:43:51.963Z,98981.06
2022-09-15T07:46:20.754Z,98986.52
2022-09-15T07:48:49.929Z,98996.21
2022-09-15T07:51:17.855Z,98996.33
2022-09-15T07:53:46.911Z,98997.35
2022-09-15T07:56:14.312Z,99004.45
2022-09-15T07:58:41.545Z,99007.09
2022-09-15T08:01:15.149Z,99009.48
2022-09-15T08:03:49.315Z,99012.09
2022-09-15T08:06:21.526Z,99013.50
2022-09-15T08:08:50.727Z,99023.40
2022-09-15T08:11:19.552Z,99024.11
2022-09-15T08:13:47.912Z,99027.73
2022-09-15T08:16:17.571Z,99028.73
2022-09-15T08:18:45.664Z,99031.03
2022-09-15T08:21:15.896Z,99028.34
2022-09-15T08:23:44.988Z,99024.39
2022-09-15T08:26:14.375Z,99027.33
2022-09-15T08:28:43.193Z,99023.55
2022-09-15T08:31:11.849Z,99026.40
2022-09-15T08:33:43.343Z,99023.31
2022-09-15T08:36:13.382Z,99016.30
2022-09-15T08:38:42.339Z,99017.23
2022-09-15T08:41:30.669Z,99012.52
2022-09-15T08:43:58.131Z,99009.19
2022-09-15T08:46:36.296Z,99007.19
2022-09-15T08:49:41.209Z,99006.86
2022-09-15T08:52:20.322Z,99000.52
2022-09-15T08:54:47.671Z,99000.19
2022-09-15T08:57:19.216Z,98998.42
2022-09-15T08:59:46.343Z,98997.70
2022-09-15T09:02:13.515Z,98999.34
2022-09-15T09:05:01.851Z,98996.54
2022-09-15T09:07:48.051Z,98992.89
2022-09-15T09:10:18.337Z,98990.93
2022-09-15T09:13:24.615Z,98986.42
2022-09-15T09:16:22.383Z,98977.95
2022-09-15T09:19:31.332Z,98978.53
2022-09-15T09:22:10.927Z,98985.48
2022-09-15T09:24:52.674Z,99000.08
2022-09-15T09:27:24.470Z,98996.27
2022-09-15T09:30:01.162Z,98997.05
2022-09-15T09:32:38.486Z,98993.61
2022-09-15T09:35:22.239Z,98994.61
2022-09-15T09:37:51.194Z,98991.91
2022-09-15T09:40:18.721Z,98990.00
2022-09-15T09:42:46.040Z,98985.52
2022-09-15T09:45:15.296Z,98991.70
2022-09-15T09:47:43.211Z,98994.81
2022-09-15T09:50:35.773Z,98999.77
2022-09-15T09:53:26.766Z,99005.69
2022-09-15T09:55:55.625Z,99005.14
2022-09-15T09:58:25.419Z,99004.69
2022-09-15T10:00:53.653Z,99002.80
2022-09-15T10:03:23.403Z,98991.27
2022-09-15T10:06:06.256Z,98986.56
2022-09-15T10:08:33.931Z,98982.08
2022-09-15T10:11:07.578Z,98985.23
2022-09-15T10:13:35.920Z,98979.73
2022-09-15T10:16:06.885Z,98974.55
2022-09-15T10:18:37.539Z,98968.10
2022-09-15T10:21:09.657Z,98969.01
2022-09-15T10:23:37.300Z,98980.76
2022-09-15T10:26:16.397Z,98977.67
2022-09-15T10:28:44.549Z,98976.54
2022-09-15T10:31:16.623Z,98975.98
2022-09-15T10:33:45.340Z,98970.46
2022-09-15T10:36:21.568Z,98970.63
2022-09-15T10:39:07.590Z,98965.33
2022-09-15T10:41:41.118Z,98965.27
2022-09-15T10:44:30.384Z,98964.80
2022-09-15T10:47:15.124Z,98968.73
2022-09-15T10:50:01.339Z,98970.94
2022-09-15T10:52:32.591Z,98967.30
2022-09-15T10:55:42.205Z,98964.45
2022-09-15T10:58:45.009Z,98962.42
2022-09-15T11:01:32.834Z,98961.81
2022-09-15T11:04:13.223Z,98961.93
2022-09-15T11:07:00.531Z,98967.59
2022-09-15T11:09:35.771Z,98967.47
2022-09-15T11:12:55.351Z,98965.73
2022-09-15T11:15:41.452Z,98958.38
2022-09-15T11:18:34.706Z,98956.66
2022-09-15T11:21:22.951Z,98958.63
2022-09-15T11:24:09.273Z,98950.06
2022-09-15T11:26:54.679Z,98947.81
2022-09-15T11:29:21.970Z,98949.40
2022-09-15T11:31:54.119Z,98948.25
2022-09-15T11:34:28.383Z,98945.84
2022-09-15T11:37:09.493Z,98946.24
2022-09-15T11:39:55.376Z,98946.13
2022-09-15T11:42:58.724Z,98940.17
2022-09-15T11:45:28.117Z,98944.27
2022-09-15T11:48:26.875Z,98941.88
2022-09-15T11:50:56.409Z,98939.41
2022-09-15T11:53:44.675Z,98938.84
2022-09-15T11:56:25.738Z,98932.81
2022-09-15T11:59:13.488Z,98935.52
2022-09-15T12:01:48.911Z,98935.91
2022-09-15T12:04:23.223Z,98933.13
2022-09-15T12:07:16.611Z,98934.42
2022-09-15T12:09:44.171Z,98937.27
2022-09-15T12:12:17.452Z,98938.45
2022-09-15T12:14:47.081Z,98937.73
2022-09-15T12:17:43.511Z,98944.33
2022-09-15T12:20:25.393Z,98942.75
2022-09-15T12:23:03.116Z,98939.27
2022-09-15T12:25:48.199Z,98937.04
2022-09-15T12:28:24.883Z,98934.13
2022-09-15T12:31:37.871Z,98929.59
2022-09-15T12:34:05.334Z,98929.45
2022-09-15T12:36:45.244Z,98924.64
2022-09-15T12:39:32.696Z,98924.73
2022-09-15T12:42:22.514Z,98925.10
2022-09-15T12:45:14.632Z,98917.46
2022-09-15T12:48:15.919Z,98916.05
2022-09-15T12:50:44.557Z,98919.05
2022-09-15T12:53:20.953Z,98913.08
2022-09-15T12:55:51.595Z,98912.09
2022-09-15T12:58:33.950Z,98911.11
2022-09-15T13:01:19.602Z,98907.60
2022-09-15T13:03:48.012Z,98906.80
2022-09-15T13:06:26.549Z,98905.34
2022-09-15T13:09:25.206Z,98905.11
2022-09-15T13:11:52.871Z,98905.09
2022-09-15T13:14:39.022Z,98905.14
2022-09-15T13:17:13.162Z,98907.48
2022-09-15T13:19:44.613Z,98910.54
2022-09-15T13:22:11.702Z,98915.17
2022-09-15T13:24:59.284Z,98912.25
2022-09-15T13:27:39.049Z,98901.13
2022-09-15T13:30:21.777Z,98898.48
2022-09-15T13:35:00.191Z,98896.55
2022-09-15T13:39:38.825Z,98901.38
2022-09-15T13:42:12.165Z,98897.74
2022-09-15T13:44:53.084Z,98898.27
2022-09-15T13:47:32.033Z,98898.12
2022-09-15T13:50:24.632Z,98900.52
2022-09-15T13:53:04.014Z,98903.13
2022-09-15T13:55:42.799Z,98902.84
2022-09-15T14:01:03.999Z,98898.01
2022-09-15T14:03:37.426Z,98896.04
2022-09-15T14:06:20.944Z,98896.35
2022-09-15T14:08:52.698Z,98898.46
2022-09-15T14:11:29.634Z,98898.61
2022-09-15T14:13:58.624Z,98892.32
2022-09-15T14:16:30.634Z,98894.13
2022-09-15T14:18:59.070Z,98893.17
2022-09-15T14:21:31.662Z,98895.17
2022-09-15T14:24:04.592Z,98895.77
2022-09-15T14:26:34.630Z,98894.23
2022-09-15T14:29:04.441Z,98895.11
2022-09-15T14:31:36.957Z,98899.72
2022-09-15T14:34:15.254Z,98892.67
2022-09-15T14:36:42.689Z,98893.80
2022-09-15T14:39:12.931Z,98887.71
2022-09-15T14:41:40.691Z,98885.77
2022-09-15T14:47:28.582Z,98889.46
2022-09-15T14:50:13.763Z,98887.17
2022-09-15T14:52:42.287Z,98883.52
2022-09-15T14:55:44.570Z,98880.86
2022-09-15T14:58:14.592Z,98882.21
2022-09-15T15:01:01.265Z,98883.64
2022-09-15T15:03:39.705Z,98888.09
2022-09-15T15:06:32.542Z,98884.51
2022-09-15T15:09:08.667Z,98885.21
2022-09-15T15:11:37.114Z,98879.23
2022-09-15T15:14:07.145Z,98882.80
2022-09-15T15:16:35.250Z,98882.71
2022-09-15T15:19:02.552Z,98884.75
2022-09-15T15:21:41.886Z,98877.27
2022-09-15T15:24:15.393Z,98878.73
2022-09-15T15:26:47.251Z,98877.48
2022-09-15T15:29:47.446Z,98873.46
2022-09-15T15:32:21.174Z,98872.46
2022-09-15T15:34:50.777Z,98874.48
2022-09-15T15:37:27.340Z,98877.05
2022-09-15T15:39:56.382Z,98880.11
2022-09-15T15:42:24.496Z,98879.27
2022-09-15T15:45:09.991Z,98876.46
2022-09-15T15:47:37.771Z,98879.89
2022-09-15T15:50:19.630Z,98884.14
2022-09-15T15:52:48.030Z,98885.33
2022-09-15T15:55:17.163Z,98886.60
2022-09-15T15:57:45.284Z,98885.73
2022-09-15T16:00:52.185Z,98883.89
2022-09-15T16:03:21.471Z,98881.30
2022-09-15T16:05:51.914Z,98884.48
2022-09-15T16:08:29.343Z,98886.57
2022-09-15T16:10:57.851Z,98895.05
2022-09-15T16:13:26.545Z,98894.36
2022-09-15T16:15:54.765Z,98893.08
2022-09-15T16:18:23.210Z,98892.88
2022-09-15T16:20:50.791Z,98892.77
2022-09-15T16:23:20.270Z,98890.13
2022-09-15T16:26:05.586Z,98890.09
2022-09-15T16:28:32.911Z,98891.16
2022-09-15T16:31:00.232Z,98892.58
2022-09-15T16:33:27.831Z,98885.41
2022-09-15T16:36:09.431Z,98891.25
2022-09-15T16:38:37.905Z,98901.41
2022-09-15T16:41:14.064Z,98902.16
2022-09-15T16:43:41.319Z,98900.95
2022-09-15T16:46:11.116Z,98898.10
2022-09-15T16:48:40.433Z,98897.11
2022-09-15T16:53:58.695Z,98903.30
2022-09-15T16:56:26.140Z,98906.13
2022-09-15T16:58:59.856Z,98903.79
2022-09-15T17:01:28.106Z,98903.45
2022-09-15T17:03:56.511Z,98910.36
2022-09-15T17:06:24.150Z,98915.49
2022-09-15T17:08:51.810Z,98912.77
2022-09-15T17:11:21.831Z,98914.52
2022-09-15T17:13:48.975Z,98914.46
2022-09-15T17:16:19.832Z,98916.77
2022-09-15T17:18:47.246Z,98917.90
2022-09-15T17:21:16.784Z,98918.85
2022-09-15T17:23:47.317Z,98920.60
2022-09-15T17:26:19.171Z,98928.05
2022-09-15T17:28:47.051Z,98930.30
2022-09-15T17:31:24.115Z,98934.33
2022-09-15T17:33:52.084Z,98938.75
2022-09-15T17:36:20.107Z,98936.37
2022-09-15T17:38:49.360Z,98936.19
2022-09-15T17:41:22.102Z,98936.02
2022-09-15T17:43:49.888Z,98938.79
2022-09-15T17:46:18.251Z,98936.79
2022-09-15T17:48:45.752Z,98932.37
2022-09-15T17:51:17.684Z,98930.43
2022-09-15T17:53:47.281Z,98937.45
2022-09-15T17:56:15.271Z,98937.27
2022-09-15T17:58:43.770Z,98941.45
2022-09-15T18:01:15.194Z,98942.48
2022-09-15T18:03:45.252Z,98945.83
2022-09-15T18:06:13.495Z,98953.41
2022-09-15T18:08:41.545Z,98950.27
2022-09-15T18:11:12.087Z,98954.78
2022-09-15T18:13:40.093Z,98953.80
2022-09-15T18:16:13.543Z,98958.88
2022-09-15T18:18:42.284Z,98955.73
2022-09-15T18:21:16.584Z,98955.64
2022-09-15T18:23:45.880Z,98960.45
2022-09-15T18:26:13.341Z,98967.02
2022-09-15T18:28:41.189Z,98966.84
2022-09-15T18:31:11.671Z,98965.15
2022-09-15T18:33:40.211Z,98973.23
2022-09-15T18:36:08.674Z,98970.67
2022-09-15T18:38:36.546Z,98974.66
2022-09-15T18:41:10.160Z,98972.59
2022-09-15T18:43:38.649Z,98973.19
2022-09-15T18:46:06.321Z,98974.17
2022-09-15T18:48:34.372Z,98974.30
2022-09-15T18:51:02.350Z,98973.81
2022-09-15T18:53:31.876Z,98978.13
2022-09-15T18:55:59.831Z,98982.98
2022-09-15T18:58:27.792Z,98985.02
2022-09-15T19:01:00.920Z,98988.83
2022-09-15T19:03:29.152Z,98988.22
2022-09-15T19:05:56.618Z,98986.91
2022-09-15T19:08:24.591Z,98992.11
2022-09-15T19:10:59.958Z,98997.55
2022-09-15T19:13:29.923Z,98998.15
2022-09-15T19:16:03.745Z,99001.48
2022-09-15T19:18:32.315Z,99004.35
2022-09-15T19:21:11.202Z,99010.66
2022-09-15T19:23:40.157Z,99013.33
2022-09-15T19:26:10.817Z,99016.11
2022-09-15T19:28:38.331Z,99016.09
2022-09-15T19:31:07.404Z,99018.95
2022-09-15T19:33:35.391Z,99013.29
2022-09-15T19:36:24.244Z,99013.80
2022-09-15T19:38:52.209Z,99017.30
2022-09-15T19:41:20.184Z,99018.70
2022-09-15T19:43:48.144Z,99014.61
2022-09-15T19:46:21.666Z,99014.41
2022-09-15T19:48:50.253Z,99009.89
2022-09-15T19:51:18.588Z,99010.02
2022-09-15T19:53:46.920Z,99012.49
2022-09-15T19:56:17.205Z,99013.88
2022-09-15T19:58:46.692Z,99017.64
2022-09-15T20:01:14.284Z,99024.97
2022-09-15T20:03:41.414Z,99025.05
2022-09-15T20:06:09.690Z,99025.71
2022-09-15T20:08:37.355Z,99025.45
2022-09-15T20:11:08.499Z,99028.27
2022-09-15T20:13:39.693Z,99026.77
2022-09-15T20:16:07.477Z,99030.01
2022-09-15T20:18:39.691Z,99033.45
2022-09-15T20:21:14.744Z,99034.34
2022-09-15T20:23:49.551Z,99028.11
2022-09-15T20:26:18.132Z,99028.83
2022-09-15T20:28:45.931Z,99030.50
2022-09-15T20:31:19.584Z,99030.15
2022-09-15T20:33:47.672Z,99029.03
2022-09-15T20:36:22.324Z,99030.00
2022-09-15T20:38:51.321Z,99031.91
2022-09-15T20:41:20.381Z,99032.88
2022-09-15T20:43:47.571Z,99032.80
2022-09-15T20:46:17.982Z,99032.99
2022-09-15T20:48:46.890Z,99032.00
2022-09-15T20:51:18.610Z,99029.54
2022-09-15T20:53:52.744Z,99022.31
2022-09-15T20:56:23.665Z,99019.68
2022-09-15T20:58:51.652Z,99022.17
2022-09-15T21:01:36.361Z,99025.10
2022-09-15T21:04:05.509Z,99023.97
2022-09-15T21:06:33.471Z,99027.35
2022-09-15T21:09:01.003Z,99027.35
2022-09-15T21:11:29.611Z,99034.54
2022-09-15T21:13:57.744Z,99033.88
2022-09-15T21:16:27.276Z,99039.52
2022-09-15T21:18:55.802Z,99039.70
2022-09-15T21:21:25.170Z,99034.64
2022-09-15T21:24:02.351Z,99040.80
2022-09-15T21:27:00.321Z,99041.83
2022-09-15T21:29:28.878Z,99044.80
2022-09-15T21:31:56.422Z,99042.40
2022-09-15T21:34:24.428Z,99039.46
2022-09-15T21:36:53.857Z,99035.14
2022-09-15T21:39:21.692Z,99038.60
2022-09-15T21:41:49.153Z,99037.81
2022-09-15T21:44:16.909Z,99038.77
2022-09-15T21:46:45.406Z,99038.42
2022-09-15T21:49:12.846Z,99043.39
2022-09-15T21:51:40.099Z,99050.09
2022-09-15T21:54:07.379Z,99051.17
2022-09-15T21:56:34.602Z,99054.18
2022-09-15T21:59:03.516Z,99058.38
2022-09-15T22:01:32.566Z,99057.20
2022-09-15T22:04:06.063Z,99058.20
2022-09-15T22:06:35.870Z,99060.43
2022-09-15T22:09:07.135Z,99062.81
2022-09-15T22:11:34.931Z,99068.72
2022-09-15T22:14:03.618Z,99069.64
2022-09-15T22:16:31.105Z,99072.61
2022-09-15T22:18:58.304Z,99078.33
2022-09-15T22:21:27.795Z,99081.77
2022-09-15T22:23:56.911Z,99080.38
2022-09-15T22:26:31.730Z,99083.30
2022-09-15T22:28:59.935Z,99086.39
2022-09-15T22:31:28.033Z,99084.91
2022-09-15T22:33:55.890Z,99090.63
2022-09-15T22:36:29.228Z,99095.14
2022-09-15T22:39:04.106Z,99097.64
2022-09-15T22:41:37.272Z,99101.20
2022-09-15T22:44:05.866Z,99098.30
2022-09-15T22:46:33.315Z,99097.34
2022-09-15T22:49:02.170Z,99097.27
2022-09-15T22:51:29.951Z,99100.17
2022-09-15T22:53:57.747Z,99100.55
2022-09-15T22:56:26.922Z,99105.39
2022-09-15T22:58:55.052Z,99106.02
2022-09-15T23:01:28.137Z,99104.22
2022-09-15T23:03:57.595Z,99105.29
2022-09-15T23:06:26.894Z,99100.38
2022-09-15T23:08:58.851Z,99102.11
2022-09-15T23:11:28.207Z,99099.27
2022-09-15T23:13:56.150Z,99103.91
2022-09-15T23:16:24.735Z,99101.77
2022-09-15T23:18:53.076Z,99098.92
2022-09-15T23:21:20.952Z,99096.92
2022-09-15T23:23:49.497Z,99098.92
2022-09-15T23:26:18.827Z,99100.31
2022-09-15T23:28:46.291Z,99098.26
2022-09-15T23:31:14.435Z,99096.17
2022-09-15T23:33:42.473Z,99093.95
2022-09-15T23:36:12.235Z,99098.53
2022-09-15T23:38:41.113Z,99100.09
2022-09-15T23:41:09.015Z,99102.33
2022-09-15T23:43:36.673Z,99101.48
2022-09-15T23:46:04.856Z,99101.44
2022-09-15T23:48:32.913Z,99105.01
2022-09-15T23:51:01.096Z,99107.65
2022-09-15T23:53:29.364Z,99109.51
2022-09-15T23:55:57.137Z,99111.48
2022-09-15T23:58:24.465Z,99113.09
